Brillion, Wisconsin
Current Conditions -  °F | °C
As of 10:56 PM on Monday 22 Dec 2014 (Local Time) from KMTW Reporting Station
Light Rain Light Rain  
Wind Chill: 30°   Ceiling: 600
Heat Index: 38°   Visibility: 6mi
Dew Point: 37°   Wind: 14mph
Humidity: 97%   Direction: 130°SE
Pressure: 29.72"   Gusts: NA
Location:  44.18°N, 88.06°W
Report Text: KMTW 230456Z AUTO 13012KT 6SM -RA BR OVC006 03/03 A2972 RMK AO2 SLP089 P0002 T00330028
Loading
Personal Weather Stations






























Interactive Weather Map New forecast layout! Learn more

10-Day Weather Forecast

Advertisements
Track Severe Weather on mobile